sensor_id;sensor_type;location;lat;lon;timestamp;P1;durP1;ratioP1;P2;durP2;ratioP2
69917;SDS011;57203;42.672;23.334;2023-06-04T00:00:02;5.5;;;3.1;;
69917;SDS011;57203;42.672;23.334;2023-06-04T00:01:02;3.4;;;2.9;;
69917;SDS011;57203;42.672;23.334;2023-06-04T00:02:02;3.9;;;3.0;;
69917;SDS011;57203;42.672;23.334;2023-06-04T00:04:02;3.4;;;2.6;;
69917;SDS011;57203;42.672;23.334;2023-06-04T00:05:03;5.0;;;2.8;;
69917;SDS011;57203;42.672;23.334;2023-06-04T00:07:03;2.9;;;2.5;;
69917;SDS011;57203;42.672;23.334;2023-06-04T00:08:03;2.9;;;2.4;;
69917;SDS011;57203;42.672;23.334;2023-06-04T00:09:03;3.2;;;2.7;;
69917;SDS011;57203;42.672;23.334;2023-06-04T00:10:04;5.0;;;2.8;;
69917;SDS011;57203;42.672;23.334;2023-06-04T00:11:04;3.2;;;2.1;;
69917;SDS011;57203;42.672;23.334;2023-06-04T00:12:04;2.5;;;2.0;;
69917;SDS011;57203;42.672;23.334;2023-06-04T00:13:04;2.5;;;2.1;;
69917;SDS011;57203;42.672;23.334;2023-06-04T00:14:05;2.3;;;2.4;;
69917;SDS011;57203;42.672;23.334;2023-06-04T00:15:05;3.7;;;2.6;;
69917;SDS011;57203;42.672;23.334;2023-06-04T00:17:05;4.8;;;2.3;;
69917;SDS011;57203;42.672;23.334;2023-06-04T00:18:06;4.8;;;2.5;;
69917;SDS011;57203;42.672;23.334;2023-06-04T00:20:06;3.0;;;2.3;;
69917;SDS011;57203;42.672;23.334;2023-06-04T00:21:06;3.0;;;2.5;;
69917;SDS011;57203;42.672;23.334;2023-06-04T00:22:07;4.1;;;2.4;;
69917;SDS011;57203;42.672;23.334;2023-06-04T00:24:07;3.0;;;2.5;;
69917;SDS011;57203;42.672;23.334;2023-06-04T00:25:07;3.0;;;2.6;;
69917;SDS011;57203;42.672;23.334;2023-06-04T00:26:07;4.2;;;2.7;;
69917;SDS011;57203;42.672;23.334;2023-06-04T00:27:08;3.4;;;2.1;;
69917;SDS011;57203;42.672;23.334;2023-06-04T00:28:08;2.3;;;2.4;;
69917;SDS011;57203;42.672;23.334;2023-06-04T00:29:08;3.6;;;2.5;;
69917;SDS011;57203;42.672;23.334;2023-06-04T00:30:09;4.7;;;2.6;;
69917;SDS011;57203;42.672;23.334;2023-06-04T00:32:09;3.6;;;2.5;;
69917;SDS011;57203;42.672;23.334;2023-06-04T00:34:09;3.1;;;2.3;;
69917;SDS011;57203;42.672;23.334;2023-06-04T00:35:09;2.9;;;2.5;;
69917;SDS011;57203;42.672;23.334;2023-06-04T00:36:10;3.3;;;2.4;;
69917;SDS011;57203;42.672;23.334;2023-06-04T00:37:10;2.9;;;2.6;;
69917;SDS011;57203;42.672;23.334;2023-06-04T00:38:10;3.4;;;2.5;;
69917;SDS011;57203;42.672;23.334;2023-06-04T00:40:11;3.2;;;2.6;;
69917;SDS011;57203;42.672;23.334;2023-06-04T00:41:11;4.0;;;3.0;;
69917;SDS011;57203;42.672;23.334;2023-06-04T00:42:11;6.4;;;2.8;;
69917;SDS011;57203;42.672;23.334;2023-06-04T00:43:11;3.9;;;2.7;;
69917;SDS011;57203;42.672;23.334;2023-06-04T00:45:12;3.4;;;2.4;;
69917;SDS011;57203;42.672;23.334;2023-06-04T00:46:12;2.7;;;2.5;;
69917;SDS011;57203;42.672;23.334;2023-06-04T00:47:12;3.7;;;2.6;;
69917;SDS011;57203;42.672;23.334;2023-06-04T00:49:12;3.6;;;2.7;;
69917;SDS011;57203;42.672;23.334;2023-06-04T00:50:13;3.6;;;2.6;;
69917;SDS011;57203;42.672;23.334;2023-06-04T00:51:13;2.9;;;2.8;;
69917;SDS011;57203;42.672;23.334;2023-06-04T00:53:13;3.2;;;2.4;;
69917;SDS011;57203;42.672;23.334;2023-06-04T00:54:13;3.2;;;3.0;;
69917;SDS011;57203;42.672;23.334;2023-06-04T00:55:14;3.3;;;2.8;;
69917;SDS011;57203;42.672;23.334;2023-06-04T00:56:14;3.1;;;3.3;;
69917;SDS011;57203;42.672;23.334;2023-06-04T00:57:14;4.4;;;2.8;;
69917;SDS011;57203;42.672;23.334;2023-06-04T00:58:14;3.1;;;2.9;;
69917;SDS011;57203;42.672;23.334;2023-06-04T00:59:15;5.2;;;3.2;;
69917;SDS011;57203;42.672;23.334;2023-06-04T01:00:15;5.2;;;3.1;;
69917;SDS011;57203;42.672;23.334;2023-06-04T01:01:19;5.1;;;3.0;;
69917;SDS011;57203;42.672;23.334;2023-06-04T01:02:16;4.7;;;3.1;;
69917;SDS011;57203;42.672;23.334;2023-06-04T01:03:17;4.7;;;3.4;;
69917;SDS011;57203;42.672;23.334;2023-06-04T01:04:18;4.4;;;3.2;;
69917;SDS011;57203;42.672;23.334;2023-06-04T01:06:18;5.2;;;3.3;;
69917;SDS011;57203;42.672;23.334;2023-06-04T01:07:16;5.7;;;3.6;;
69917;SDS011;57203;42.672;23.334;2023-06-04T01:08:16;5.7;;;3.3;;
69917;SDS011;57203;42.672;23.334;2023-06-04T01:09:17;5.1;;;3.5;;
69917;SDS011;57203;42.672;23.334;2023-06-04T01:10:17;5.1;;;3.8;;
69917;SDS011;57203;42.672;23.334;2023-06-04T01:11:17;5.9;;;3.7;;
69917;SDS011;57203;42.672;23.334;2023-06-04T01:13:18;4.3;;;3.5;;
69917;SDS011;57203;42.672;23.334;2023-06-04T01:14:18;4.3;;;3.8;;
69917;SDS011;57203;42.672;23.334;2023-06-04T01:15:18;6.2;;;3.5;;
69917;SDS011;57203;42.672;23.334;2023-06-04T01:16:18;6.1;;;3.9;;
69917;SDS011;57203;42.672;23.334;2023-06-04T01:17:19;6.1;;;3.4;;
69917;SDS011;57203;42.672;23.334;2023-06-04T01:18:20;3.8;;;3.3;;
69917;SDS011;57203;42.672;23.334;2023-06-04T01:19:23;5.0;;;3.9;;
69917;SDS011;57203;42.672;23.334;2023-06-04T01:20:28;5.2;;;3.2;;
69917;SDS011;57203;42.672;23.334;2023-06-04T01:21:19;4.0;;;3.3;;
69917;SDS011;57203;42.672;23.334;2023-06-04T01:23:25;4.7;;;3.8;;
69917;SDS011;57203;42.672;23.334;2023-06-04T01:24:21;5.3;;;3.7;;
69917;SDS011;57203;42.672;23.334;2023-06-04T01:25:20;4.7;;;4.0;;
69917;SDS011;57203;42.672;23.334;2023-06-04T01:26:20;5.3;;;3.7;;
69917;SDS011;57203;42.672;23.334;2023-06-04T01:27:20;4.6;;;3.5;;
69917;SDS011;57203;42.672;23.334;2023-06-04T01:28:21;4.4;;;3.7;;
69917;SDS011;57203;42.672;23.334;2023-06-04T01:29:21;4.6;;;3.4;;
69917;SDS011;57203;42.672;23.334;2023-06-04T01:30:23;5.3;;;3.6;;
69917;SDS011;57203;42.672;23.334;2023-06-04T01:31:21;5.0;;;3.4;;
69917;SDS011;57203;42.672;23.334;2023-06-04T01:32:22;4.5;;;3.8;;
69917;SDS011;57203;42.672;23.334;2023-06-04T01:33:22;4.6;;;3.4;;
69917;SDS011;57203;42.672;23.334;2023-06-04T01:35:22;4.2;;;3.7;;
69917;SDS011;57203;42.672;23.334;2023-06-04T01:36:22;4.6;;;3.2;;
69917;SDS011;57203;42.672;23.334;2023-06-04T01:37:23;4.2;;;3.8;;
69917;SDS011;57203;42.672;23.334;2023-06-04T01:38:23;4.2;;;3.3;;
69917;SDS011;57203;42.672;23.334;2023-06-04T01:40:23;3.7;;;3.5;;
69917;SDS011;57203;42.672;23.334;2023-06-04T01:41:23;4.2;;;3.6;;
69917;SDS011;57203;42.672;23.334;2023-06-04T01:42:24;5.1;;;3.3;;
69917;SDS011;57203;42.672;23.334;2023-06-04T01:43:24;4.1;;;3.1;;
69917;SDS011;57203;42.672;23.334;2023-06-04T01:44:24;3.8;;;3.2;;
69917;SDS011;57203;42.672;23.334;2023-06-04T01:45:25;3.8;;;3.0;;
69917;SDS011;57203;42.672;23.334;2023-06-04T01:46:24;3.9;;;2.8;;
69917;SDS011;57203;42.672;23.334;2023-06-04T01:47:25;3.9;;;2.5;;
69917;SDS011;57203;42.672;23.334;2023-06-04T01:48:25;4.4;;;2.7;;
69917;SDS011;57203;42.672;23.334;2023-06-04T01:49:25;4.4;;;2.5;;
69917;SDS011;57203;42.672;23.334;2023-06-04T01:50:25;2.8;;;2.8;;
69917;SDS011;57203;42.672;23.334;2023-06-04T01:51:26;4.1;;;2.3;;
69917;SDS011;57203;42.672;23.334;2023-06-04T01:52:26;2.5;;;2.7;;
69917;SDS011;57203;42.672;23.334;2023-06-04T01:53:26;3.5;;;2.5;;
69917;SDS011;57203;42.672;23.334;2023-06-04T01:54:26;3.4;;;2.3;;
69917;SDS011;57203;42.672;23.334;2023-06-04T01:56:27;2.5;;;2.4;;
69917;SDS011;57203;42.672;23.334;2023-06-04T01:57:27;2.4;;;2.1;;
69917;SDS011;57203;42.672;23.334;2023-06-04T01:58:27;2.6;;;2.2;;
69917;SDS011;57203;42.672;23.334;2023-06-04T01:59:27;2.6;;;2.6;;
69917;SDS011;57203;42.672;23.334;2023-06-04T02:00:28;3.6;;;2.4;;
69917;SDS011;57203;42.672;23.334;2023-06-04T02:01:28;3.3;;;2.3;;
69917;SDS011;57203;42.672;23.334;2023-06-04T02:02:28;3.8;;;2.7;;
69917;SDS011;57203;42.672;23.334;2023-06-04T02:03:28;4.1;;;2.5;;
69917;SDS011;57203;42.672;23.334;2023-06-04T02:04:28;4.4;;;2.0;;
69917;SDS011;57203;42.672;23.334;2023-06-04T02:05:29;2.6;;;2.3;;
69917;SDS011;57203;42.672;23.334;2023-06-04T02:07:29;2.8;;;2.4;;
69917;SDS011;57203;42.672;23.334;2023-06-04T02:08:29;3.8;;;2.5;;
69917;SDS011;57203;42.672;23.334;2023-06-04T02:09:29;3.7;;;2.3;;
69917;SDS011;57203;42.672;23.334;2023-06-04T02:11:30;3.8;;;2.1;;
69917;SDS011;57203;42.672;23.334;2023-06-04T02:12:30;2.3;;;2.3;;
69917;SDS011;57203;42.672;23.334;2023-06-04T02:13:30;3.8;;;2.0;;
69917;SDS011;57203;42.672;23.334;2023-06-04T02:14:30;3.8;;;2.4;;
69917;SDS011;57203;42.672;23.334;2023-06-04T02:15:31;4.3;;;1.9;;
69917;SDS011;57203;42.672;23.334;2023-06-04T02:16:31;2.8;;;2.1;;
69917;SDS011;57203;42.672;23.334;2023-06-04T02:17:31;2.8;;;2.0;;
69917;SDS011;57203;42.672;23.334;2023-06-04T02:18:31;2.7;;;2.4;;
69917;SDS011;57203;42.672;23.334;2023-06-04T02:19:32;3.8;;;1.7;;
69917;SDS011;57203;42.672;23.334;2023-06-04T02:20:32;2.5;;;2.1;;
69917;SDS011;57203;42.672;23.334;2023-06-04T02:21:32;2.8;;;2.2;;
69917;SDS011;57203;42.672;23.334;2023-06-04T02:22:32;2.6;;;2.1;;
69917;SDS011;57203;42.672;23.334;2023-06-04T02:23:32;2.9;;;2.5;;
69917;SDS011;57203;42.672;23.334;2023-06-04T02:24:32;2.2;;;2.0;;
69917;SDS011;57203;42.672;23.334;2023-06-04T02:25:33;2.2;;;2.5;;
69917;SDS011;57203;42.672;23.334;2023-06-04T02:26:33;4.0;;;2.2;;
69917;SDS011;57203;42.672;23.334;2023-06-04T02:27:33;3.0;;;2.5;;
69917;SDS011;57203;42.672;23.334;2023-06-04T02:28:33;2.8;;;2.3;;
69917;SDS011;57203;42.672;23.334;2023-06-04T02:29:34;2.8;;;2.2;;
69917;SDS011;57203;42.672;23.334;2023-06-04T02:30:34;2.8;;;2.3;;
69917;SDS011;57203;42.672;23.334;2023-06-04T02:31:34;3.2;;;2.2;;
69917;SDS011;57203;42.672;23.334;2023-06-04T02:32:34;3.9;;;2.1;;
69917;SDS011;57203;42.672;23.334;2023-06-04T02:33:34;3.3;;;1.9;;
69917;SDS011;57203;42.672;23.334;2023-06-04T02:34:35;2.6;;;2.2;;
69917;SDS011;57203;42.672;23.334;2023-06-04T02:35:35;2.6;;;2.1;;
69917;SDS011;57203;42.672;23.334;2023-06-04T02:36:35;2.3;;;2.3;;
69917;SDS011;57203;42.672;23.334;2023-06-04T02:38:35;2.6;;;2.1;;
69917;SDS011;57203;42.672;23.334;2023-06-04T02:39:36;2.6;;;2.5;;
69917;SDS011;57203;42.672;23.334;2023-06-04T02:40:36;3.6;;;2.2;;
69917;SDS011;57203;42.672;23.334;2023-06-04T02:42:36;3.2;;;2.3;;
69917;SDS011;57203;42.672;23.334;2023-06-04T02:43:36;3.2;;;2.5;;
69917;SDS011;57203;42.672;23.334;2023-06-04T02:44:37;2.7;;;2.2;;
69917;SDS011;57203;42.672;23.334;2023-06-04T02:46:37;3.9;;;2.5;;
69917;SDS011;57203;42.672;23.334;2023-06-04T02:47:37;3.1;;;2.3;;
69917;SDS011;57203;42.672;23.334;2023-06-04T02:48:37;2.6;;;2.4;;
69917;SDS011;57203;42.672;23.334;2023-06-04T02:49:38;4.4;;;2.5;;
69917;SDS011;57203;42.672;23.334;2023-06-04T02:50:38;4.4;;;2.9;;
69917;SDS011;57203;42.672;23.334;2023-06-04T02:51:38;6.2;;;2.1;;
69917;SDS011;57203;42.672;23.334;2023-06-04T02:52:39;3.5;;;2.3;;
69917;SDS011;57203;42.672;23.334;2023-06-04T02:53:38;3.5;;;2.5;;
69917;SDS011;57203;42.672;23.334;2023-06-04T02:54:39;2.9;;;2.7;;
69917;SDS011;57203;42.672;23.334;2023-06-04T02:55:39;5.7;;;2.2;;
69917;SDS011;57203;42.672;23.334;2023-06-04T02:56:39;3.0;;;2.6;;
69917;SDS011;57203;42.672;23.334;2023-06-04T02:57:40;3.5;;;2.7;;
69917;SDS011;57203;42.672;23.334;2023-06-04T02:58:48;3.2;;;3.0;;
69917;SDS011;57203;42.672;23.334;2023-06-04T02:59:40;4.1;;;2.6;;
69917;SDS011;57203;42.672;23.334;2023-06-04T03:00:40;3.6;;;2.7;;
69917;SDS011;57203;42.672;23.334;2023-06-04T03:02:41;4.5;;;2.8;;
69917;SDS011;57203;42.672;23.334;2023-06-04T03:04:41;4.0;;;2.6;;
69917;SDS011;57203;42.672;23.334;2023-06-04T03:05:41;3.1;;;3.0;;
69917;SDS011;57203;42.672;23.334;2023-06-04T03:07:42;3.6;;;2.8;;
69917;SDS011;57203;42.672;23.334;2023-06-04T03:09:42;3.1;;;3.1;;
69917;SDS011;57203;42.672;23.334;2023-06-04T03:10:42;5.0;;;2.4;;
69917;SDS011;57203;42.672;23.334;2023-06-04T03:11:42;3.9;;;2.9;;
69917;SDS011;57203;42.672;23.334;2023-06-04T03:12:43;3.4;;;2.7;;
69917;SDS011;57203;42.672;23.334;2023-06-04T03:14:43;3.2;;;2.3;;
69917;SDS011;57203;42.672;23.334;2023-06-04T03:15:43;3.6;;;2.7;;
69917;SDS011;57203;42.672;23.334;2023-06-04T03:16:43;3.3;;;2.5;;
69917;SDS011;57203;42.672;23.334;2023-06-04T03:17:44;3.5;;;2.7;;
69917;SDS011;57203;42.672;23.334;2023-06-04T03:18:44;3.3;;;2.8;;
69917;SDS011;57203;42.672;23.334;2023-06-04T03:20:44;4.0;;;3.0;;
69917;SDS011;57203;42.672;23.334;2023-06-04T03:21:45;3.9;;;2.7;;
69917;SDS011;57203;42.672;23.334;2023-06-04T03:22:45;3.0;;;2.5;;
69917;SDS011;57203;42.672;23.334;2023-06-04T03:23:45;4.3;;;3.0;;
69917;SDS011;57203;42.672;23.334;2023-06-04T03:24:45;4.3;;;2.5;;
69917;SDS011;57203;42.672;23.334;2023-06-04T03:25:45;2.8;;;2.8;;
69917;SDS011;57203;42.672;23.334;2023-06-04T03:26:46;3.9;;;2.5;;
69917;SDS011;57203;42.672;23.334;2023-06-04T03:27:46;3.9;;;2.7;;
69917;SDS011;57203;42.672;23.334;2023-06-04T03:28:46;4.3;;;2.6;;
69917;SDS011;57203;42.672;23.334;2023-06-04T03:29:46;3.6;;;2.5;;
69917;SDS011;57203;42.672;23.334;2023-06-04T03:30:47;3.4;;;2.6;;
69917;SDS011;57203;42.672;23.334;2023-06-04T03:31:47;3.1;;;2.5;;
69917;SDS011;57203;42.672;23.334;2023-06-04T03:33:47;3.4;;;2.6;;
69917;SDS011;57203;42.672;23.334;2023-06-04T03:34:47;3.2;;;2.7;;
69917;SDS011;57203;42.672;23.334;2023-06-04T03:35:48;6.2;;;2.5;;
69917;SDS011;57203;42.672;23.334;2023-06-04T03:36:48;5.5;;;2.7;;
69917;SDS011;57203;42.672;23.334;2023-06-04T03:37:48;3.0;;;2.6;;
69917;SDS011;57203;42.672;23.334;2023-06-04T03:39:48;3.6;;;2.8;;
69917;SDS011;57203;42.672;23.334;2023-06-04T03:40:49;3.4;;;2.7;;
69917;SDS011;57203;42.672;23.334;2023-06-04T03:41:49;4.4;;;2.6;;
69917;SDS011;57203;42.672;23.334;2023-06-04T03:42:49;3.8;;;2.9;;
69917;SDS011;57203;42.672;23.334;2023-06-04T03:43:49;4.0;;;2.2;;
69917;SDS011;57203;42.672;23.334;2023-06-04T03:44:49;3.3;;;2.6;;
69917;SDS011;57203;42.672;23.334;2023-06-04T03:45:50;3.1;;;2.5;;
69917;SDS011;57203;42.672;23.334;2023-06-04T03:46:50;3.6;;;2.7;;
69917;SDS011;57203;42.672;23.334;2023-06-04T03:47:50;3.4;;;2.8;;
69917;SDS011;57203;42.672;23.334;2023-06-04T03:48:50;3.9;;;2.3;;
69917;SDS011;57203;42.672;23.334;2023-06-04T03:49:51;3.6;;;2.5;;
69917;SDS011;57203;42.672;23.334;2023-06-04T03:50:51;3.2;;;2.6;;
69917;SDS011;57203;42.672;23.334;2023-06-04T03:51:51;4.0;;;2.5;;
69917;SDS011;57203;42.672;23.334;2023-06-04T03:52:51;3.8;;;2.8;;
69917;SDS011;57203;42.672;23.334;2023-06-04T03:53:51;3.1;;;2.6;;
69917;SDS011;57203;42.672;23.334;2023-06-04T03:54:52;3.1;;;2.5;;
69917;SDS011;57203;42.672;23.334;2023-06-04T03:55:52;3.4;;;2.4;;
69917;SDS011;57203;42.672;23.334;2023-06-04T03:56:52;4.8;;;2.6;;
69917;SDS011;57203;42.672;23.334;2023-06-04T03:57:52;3.1;;;2.7;;
69917;SDS011;57203;42.672;23.334;2023-06-04T04:00:53;3.2;;;2.8;;
69917;SDS011;57203;42.672;23.334;2023-06-04T04:02:53;3.1;;;2.4;;
69917;SDS011;57203;42.672;23.334;2023-06-04T04:03:54;3.4;;;2.9;;
69917;SDS011;57203;42.672;23.334;2023-06-04T04:05:54;4.3;;;2.8;;
69917;SDS011;57203;42.672;23.334;2023-06-04T04:06:54;4.1;;;2.4;;
69917;SDS011;57203;42.672;23.334;2023-06-04T04:07:54;3.5;;;2.6;;
69917;SDS011;57203;42.672;23.334;2023-06-04T04:08:55;3.1;;;2.5;;
69917;SDS011;57203;42.672;23.334;2023-06-04T04:09:55;3.6;;;2.8;;
69917;SDS011;57203;42.672;23.334;2023-06-04T04:10:55;4.6;;;3.0;;
69917;SDS011;57203;42.672;23.334;2023-06-04T04:11:55;3.7;;;2.8;;
69917;SDS011;57203;42.672;23.334;2023-06-04T04:12:55;5.3;;;2.7;;
69917;SDS011;57203;42.672;23.334;2023-06-04T04:13:56;2.9;;;2.5;;
69917;SDS011;57203;42.672;23.334;2023-06-04T04:14:56;2.9;;;2.8;;
69917;SDS011;57203;42.672;23.334;2023-06-04T04:15:56;3.6;;;3.0;;
69917;SDS011;57203;42.672;23.334;2023-06-04T04:18:57;4.5;;;2.8;;
69917;SDS011;57203;42.672;23.334;2023-06-04T04:19:57;4.4;;;2.6;;
69917;SDS011;57203;42.672;23.334;2023-06-04T04:20:57;4.4;;;2.8;;
69917;SDS011;57203;42.672;23.334;2023-06-04T04:21:57;4.6;;;3.0;;
69917;SDS011;57203;42.672;23.334;2023-06-04T04:22:58;4.0;;;2.9;;
69917;SDS011;57203;42.672;23.334;2023-06-04T04:23:58;4.0;;;3.0;;
69917;SDS011;57203;42.672;23.334;2023-06-04T04:25:58;3.3;;;3.1;;
69917;SDS011;57203;42.672;23.334;2023-06-04T04:26:59;4.4;;;3.0;;
69917;SDS011;57203;42.672;23.334;2023-06-04T04:27:59;5.7;;;3.5;;
69917;SDS011;57203;42.672;23.334;2023-06-04T04:28:59;5.7;;;3.0;;
69917;SDS011;57203;42.672;23.334;2023-06-04T04:29:59;4.6;;;2.8;;
69917;SDS011;57203;42.672;23.334;2023-06-04T04:30:59;3.4;;;2.7;;
69917;SDS011;57203;42.672;23.334;2023-06-04T04:32:01;3.4;;;2.8;;
69917;SDS011;57203;42.672;23.334;2023-06-04T04:33:00;3.5;;;2.7;;
69917;SDS011;57203;42.672;23.334;2023-06-04T04:34:00;3.7;;;3.2;;
69917;SDS011;57203;42.672;23.334;2023-06-04T04:36:01;5.0;;;2.9;;
69917;SDS011;57203;42.672;23.334;2023-06-04T04:37:01;4.3;;;3.5;;
69917;SDS011;57203;42.672;23.334;2023-06-04T04:38:01;4.3;;;3.0;;
69917;SDS011;57203;42.672;23.334;2023-06-04T04:40:02;4.0;;;3.2;;
69917;SDS011;57203;42.672;23.334;2023-06-04T04:41:02;3.5;;;3.1;;
69917;SDS011;57203;42.672;23.334;2023-06-04T04:42:02;4.6;;;3.2;;
69917;SDS011;57203;42.672;23.334;2023-06-04T04:44:03;5.4;;;3.3;;
69917;SDS011;57203;42.672;23.334;2023-06-04T04:45:03;4.4;;;3.6;;
69917;SDS011;57203;42.672;23.334;2023-06-04T04:46:03;5.5;;;3.4;;
69917;SDS011;57203;42.672;23.334;2023-06-04T04:47:03;3.8;;;3.3;;
69917;SDS011;57203;42.672;23.334;2023-06-04T04:48:03;3.8;;;3.4;;
69917;SDS011;57203;42.672;23.334;2023-06-04T04:50:04;4.4;;;3.6;;
69917;SDS011;57203;42.672;23.334;2023-06-04T04:51:04;4.2;;;3.8;;
69917;SDS011;57203;42.672;23.334;2023-06-04T04:52:04;5.3;;;3.7;;
69917;SDS011;57203;42.672;23.334;2023-06-04T04:53:04;4.7;;;3.3;;
69917;SDS011;57203;42.672;23.334;2023-06-04T04:55:06;4.8;;;3.2;;
69917;SDS011;57203;42.672;23.334;2023-06-04T04:56:05;3.5;;;3.3;;
69917;SDS011;57203;42.672;23.334;2023-06-04T04:57:05;5.4;;;4.0;;
69917;SDS011;57203;42.672;23.334;2023-06-04T04:59:06;5.1;;;3.5;;
69917;SDS011;57203;42.672;23.334;2023-06-04T05:02:06;4.5;;;3.6;;
69917;SDS011;57203;42.672;23.334;2023-06-04T05:03:07;4.1;;;4.0;;
69917;SDS011;57203;42.672;23.334;2023-06-04T05:04:07;4.9;;;3.5;;
69917;SDS011;57203;42.672;23.334;2023-06-04T05:05:07;4.6;;;3.9;;
69917;SDS011;57203;42.672;23.334;2023-06-04T05:06:07;4.6;;;3.7;;
69917;SDS011;57203;42.672;23.334;2023-06-04T05:08:08;5.1;;;3.6;;
69917;SDS011;57203;42.672;23.334;2023-06-04T05:09:08;4.2;;;3.8;;
69917;SDS011;57203;42.672;23.334;2023-06-04T05:10:08;5.0;;;3.5;;
69917;SDS011;57203;42.672;23.334;2023-06-04T05:11:08;4.6;;;3.8;;
69917;SDS011;57203;42.672;23.334;2023-06-04T05:12:09;4.2;;;3.6;;
69917;SDS011;57203;42.672;23.334;2023-06-04T05:14:09;4.3;;;3.7;;
69917;SDS011;57203;42.672;23.334;2023-06-04T05:15:10;4.7;;;3.4;;
69917;SDS011;57203;42.672;23.334;2023-06-04T05:16:09;4.7;;;4.1;;
69917;SDS011;57203;42.672;23.334;2023-06-04T05:17:10;6.8;;;3.8;;
69917;SDS011;57203;42.672;23.334;2023-06-04T05:18:10;4.7;;;3.6;;
69917;SDS011;57203;42.672;23.334;2023-06-04T05:19:10;5.5;;;3.7;;
69917;SDS011;57203;42.672;23.334;2023-06-04T05:20:10;5.5;;;3.5;;
69917;SDS011;57203;42.672;23.334;2023-06-04T05:21:11;5.0;;;3.7;;
69917;SDS011;57203;42.672;23.334;2023-06-04T05:22:11;5.1;;;4.0;;
69917;SDS011;57203;42.672;23.334;2023-06-04T05:23:11;5.7;;;3.7;;
69917;SDS011;57203;42.672;23.334;2023-06-04T05:24:11;4.6;;;3.6;;
69917;SDS011;57203;42.672;23.334;2023-06-04T05:25:11;6.5;;;3.5;;
69917;SDS011;57203;42.672;23.334;2023-06-04T05:26:12;5.5;;;3.8;;
69917;SDS011;57203;42.672;23.334;2023-06-04T05:27:12;6.2;;;4.1;;
69917;SDS011;57203;42.672;23.334;2023-06-04T05:28:12;6.6;;;3.7;;
69917;SDS011;57203;42.672;23.334;2023-06-04T05:29:12;5.5;;;4.0;;
69917;SDS011;57203;42.672;23.334;2023-06-04T05:30:13;6.5;;;3.9;;
69917;SDS011;57203;42.672;23.334;2023-06-04T05:32:13;7.1;;;4.3;;
69917;SDS011;57203;42.672;23.334;2023-06-04T05:33:13;5.5;;;3.9;;
69917;SDS011;57203;42.672;23.334;2023-06-04T05:34:13;5.5;;;3.8;;
69917;SDS011;57203;42.672;23.334;2023-06-04T05:36:14;6.1;;;4.4;;
69917;SDS011;57203;42.672;23.334;2023-06-04T05:37:14;6.3;;;4.1;;
69917;SDS011;57203;42.672;23.334;2023-06-04T05:38:14;5.6;;;4.0;;
69917;SDS011;57203;42.672;23.334;2023-06-04T05:39:14;6.2;;;4.3;;
69917;SDS011;57203;42.672;23.334;2023-06-04T05:40:15;6.7;;;4.1;;
69917;SDS011;57203;42.672;23.334;2023-06-04T05:42:15;5.4;;;4.2;;
69917;SDS011;57203;42.672;23.334;2023-06-04T05:43:15;7.1;;;4.4;;
69917;SDS011;57203;42.672;23.334;2023-06-04T05:44:16;7.8;;;3.9;;
69917;SDS011;57203;42.672;23.334;2023-06-04T05:45:16;4.9;;;3.6;;
69917;SDS011;57203;42.672;23.334;2023-06-04T05:46:16;4.7;;;4.3;;
69917;SDS011;57203;42.672;23.334;2023-06-04T05:48:16;7.3;;;3.9;;
69917;SDS011;57203;42.672;23.334;2023-06-04T05:49:17;6.9;;;3.8;;
69917;SDS011;57203;42.672;23.334;2023-06-04T05:50:17;5.9;;;4.1;;
69917;SDS011;57203;42.672;23.334;2023-06-04T05:51:17;5.9;;;4.0;;
69917;SDS011;57203;42.672;23.334;2023-06-04T05:52:17;7.2;;;4.1;;
69917;SDS011;57203;42.672;23.334;2023-06-04T05:53:18;8.7;;;4.3;;
69917;SDS011;57203;42.672;23.334;2023-06-04T05:54:18;5.3;;;4.1;;
69917;SDS011;57203;42.672;23.334;2023-06-04T05:56:18;5.8;;;4.0;;
69917;SDS011;57203;42.672;23.334;2023-06-04T05:58:19;5.0;;;3.7;;
69917;SDS011;57203;42.672;23.334;2023-06-04T05:59:19;5.1;;;3.4;;
69917;SDS011;57203;42.672;23.334;2023-06-04T06:00:19;7.5;;;3.6;;
69917;SDS011;57203;42.672;23.334;2023-06-04T06:01:19;4.0;;;4.2;;
69917;SDS011;57203;42.672;23.334;2023-06-04T06:02:20;7.8;;;4.0;;
69917;SDS011;57203;42.672;23.334;2023-06-04T06:05:20;5.8;;;3.8;;
69917;SDS011;57203;42.672;23.334;2023-06-04T06:06:21;5.3;;;4.0;;
69917;SDS011;57203;42.672;23.334;2023-06-04T06:07:21;5.4;;;3.7;;
69917;SDS011;57203;42.672;23.334;2023-06-04T06:08:21;5.3;;;4.5;;
69917;SDS011;57203;42.672;23.334;2023-06-04T06:09:21;5.0;;;3.7;;
69917;SDS011;57203;42.672;23.334;2023-06-04T06:10:21;6.3;;;3.9;;
69917;SDS011;57203;42.672;23.334;2023-06-04T06:12:22;4.7;;;3.7;;
69917;SDS011;57203;42.672;23.334;2023-06-04T06:13:22;4.5;;;4.0;;
69917;SDS011;57203;42.672;23.334;2023-06-04T06:14:22;6.3;;;3.7;;
69917;SDS011;57203;42.672;23.334;2023-06-04T06:15:23;5.9;;;4.0;;
69917;SDS011;57203;42.672;23.334;2023-06-04T06:16:23;4.4;;;3.8;;
69917;SDS011;57203;42.672;23.334;2023-06-04T06:17:23;6.2;;;4.0;;
69917;SDS011;57203;42.672;23.334;2023-06-04T06:18:23;7.0;;;4.2;;
69917;SDS011;57203;42.672;23.334;2023-06-04T06:19:23;7.0;;;3.7;;
69917;SDS011;57203;42.672;23.334;2023-06-04T06:21:24;4.4;;;4.1;;
69917;SDS011;57203;42.672;23.334;2023-06-04T06:22:24;5.0;;;3.8;;
69917;SDS011;57203;42.672;23.334;2023-06-04T06:23:24;6.0;;;3.9;;
69917;SDS011;57203;42.672;23.334;2023-06-04T06:26:25;5.9;;;3.7;;
69917;SDS011;57203;42.672;23.334;2023-06-04T06:27:25;4.9;;;3.8;;
69917;SDS011;57203;42.672;23.334;2023-06-04T06:28:25;5.0;;;3.6;;
69917;SDS011;57203;42.672;23.334;2023-06-04T06:29:26;5.0;;;3.4;;
69917;SDS011;57203;42.672;23.334;2023-06-04T06:31:26;4.7;;;3.3;;
69917;SDS011;57203;42.672;23.334;2023-06-04T06:32:27;3.7;;;3.5;;
69917;SDS011;57203;42.672;23.334;2023-06-04T06:33:27;4.8;;;3.7;;
69917;SDS011;57203;42.672;23.334;2023-06-04T06:34:27;4.9;;;3.4;;
69917;SDS011;57203;42.672;23.334;2023-06-04T06:35:27;4.9;;;3.6;;
69917;SDS011;57203;42.672;23.334;2023-06-04T06:36:27;5.8;;;3.7;;
69917;SDS011;57203;42.672;23.334;2023-06-04T06:37:27;5.0;;;3.6;;
69917;SDS011;57203;42.672;23.334;2023-06-04T06:38:28;4.4;;;3.1;;
69917;SDS011;57203;42.672;23.334;2023-06-04T06:39:28;3.4;;;3.6;;
69917;SDS011;57203;42.672;23.334;2023-06-04T06:40:28;5.5;;;3.8;;
69917;SDS011;57203;42.672;23.334;2023-06-04T06:41:28;7.7;;;3.2;;
69917;SDS011;57203;42.672;23.334;2023-06-04T06:42:32;6.2;;;3.6;;
69917;SDS011;57203;42.672;23.334;2023-06-04T06:44:29;5.4;;;3.4;;
69917;SDS011;57203;42.672;23.334;2023-06-04T06:46:30;5.5;;;3.5;;
69917;SDS011;57203;42.672;23.334;2023-06-04T06:47:30;7.4;;;2.9;;
69917;SDS011;57203;42.672;23.334;2023-06-04T06:48:30;4.8;;;3.2;;
69917;SDS011;57203;42.672;23.334;2023-06-04T06:49:30;4.6;;;3.5;;
69917;SDS011;57203;42.672;23.334;2023-06-04T06:51:31;5.1;;;3.7;;
69917;SDS011;57203;42.672;23.334;2023-06-04T06:52:31;5.4;;;3.5;;
69917;SDS011;57203;42.672;23.334;2023-06-04T06:53:31;5.1;;;3.7;;
69917;SDS011;57203;42.672;23.334;2023-06-04T06:54:32;6.2;;;3.6;;
69917;SDS011;57203;42.672;23.334;2023-06-04T06:55:32;6.2;;;3.8;;
69917;SDS011;57203;42.672;23.334;2023-06-04T06:56:32;6.0;;;4.4;;
69917;SDS011;57203;42.672;23.334;2023-06-04T06:57:32;5.9;;;3.7;;
69917;SDS011;57203;42.672;23.334;2023-06-04T06:58:32;4.8;;;3.5;;
69917;SDS011;57203;42.672;23.334;2023-06-04T06:59:32;9.6;;;3.7;;
69917;SDS011;57203;42.672;23.334;2023-06-04T07:00:33;6.2;;;3.2;;
69917;SDS011;57203;42.672;23.334;2023-06-04T07:01:33;3.5;;;3.5;;
69917;SDS011;57203;42.672;23.334;2023-06-04T07:02:33;5.2;;;3.4;;
69917;SDS011;57203;42.672;23.334;2023-06-04T07:03:33;5.2;;;3.7;;
69917;SDS011;57203;42.672;23.334;2023-06-04T07:04:34;5.2;;;3.5;;
69917;SDS011;57203;42.672;23.334;2023-06-04T07:05:34;4.6;;;3.4;;
69917;SDS011;57203;42.672;23.334;2023-06-04T07:06:34;4.6;;;3.1;;
69917;SDS011;57203;42.672;23.334;2023-06-04T07:07:34;5.2;;;3.4;;
69917;SDS011;57203;42.672;23.334;2023-06-04T07:08:34;4.6;;;3.2;;
69917;SDS011;57203;42.672;23.334;2023-06-04T07:09:35;4.6;;;3.4;;
69917;SDS011;57203;42.672;23.334;2023-06-04T07:10:35;5.7;;;3.5;;